sensor_id;sensor_type;location;lat;lon;timestamp;P1;durP1;ratioP1;P2;durP2;ratioP2
4634;SDS011;2330;48.158;11.816;2022-10-20T00:01:49;26.63;;;23.93;;
4634;SDS011;2330;48.158;11.816;2022-10-20T00:04:16;28.20;;;25.03;;
4634;SDS011;2330;48.158;11.816;2022-10-20T00:06:42;28.57;;;25.67;;
4634;SDS011;2330;48.158;11.816;2022-10-20T00:09:09;27.77;;;23.80;;
4634;SDS011;2330;48.158;11.816;2022-10-20T00:11:36;25.83;;;23.20;;
4634;SDS011;2330;48.158;11.816;2022-10-20T00:14:03;29.10;;;24.10;;
4634;SDS011;2330;48.158;11.816;2022-10-20T00:16:33;27.40;;;24.50;;
4634;SDS011;2330;48.158;11.816;2022-10-20T00:19:02;28.27;;;25.37;;
4634;SDS011;2330;48.158;11.816;2022-10-20T00:21:30;27.93;;;24.27;;
4634;SDS011;2330;48.158;11.816;2022-10-20T00:23:58;26.67;;;23.93;;
4634;SDS011;2330;48.158;11.816;2022-10-20T00:26:26;25.37;;;22.87;;
4634;SDS011;2330;48.158;11.816;2022-10-20T00:28:54;26.77;;;24.13;;
4634;SDS011;2330;48.158;11.816;2022-10-20T00:31:22;28.63;;;23.47;;
4634;SDS011;2330;48.158;11.816;2022-10-20T00:33:50;25.67;;;23.07;;
4634;SDS011;2330;48.158;11.816;2022-10-20T00:36:17;27.63;;;24.73;;
4634;SDS011;2330;48.158;11.816;2022-10-20T00:38:45;25.63;;;23.07;;
4634;SDS011;2330;48.158;11.816;2022-10-20T00:41:13;25.80;;;23.30;;
4634;SDS011;2330;48.158;11.816;2022-10-20T00:46:19;26.30;;;23.77;;
4634;SDS011;2330;48.158;11.816;2022-10-20T00:48:49;27.57;;;24.87;;
4634;SDS011;2330;48.158;11.816;2022-10-20T00:51:23;25.87;;;23.17;;
4634;SDS011;2330;48.158;11.816;2022-10-20T00:53:52;28.30;;;23.90;;
4634;SDS011;2330;48.158;11.816;2022-10-20T00:56:24;27.60;;;23.90;;
4634;SDS011;2330;48.158;11.816;2022-10-20T00:58:51;29.27;;;23.90;;
4634;SDS011;2330;48.158;11.816;2022-10-20T01:01:18;24.70;;;22.03;;
4634;SDS011;2330;48.158;11.816;2022-10-20T01:03:49;35.10;;;24.40;;
4634;SDS011;2330;48.158;11.816;2022-10-20T01:06:18;28.80;;;23.20;;
4634;SDS011;2330;48.158;11.816;2022-10-20T01:08:48;26.60;;;23.67;;
4634;SDS011;2330;48.158;11.816;2022-10-20T01:11:18;28.00;;;23.60;;
4634;SDS011;2330;48.158;11.816;2022-10-20T01:14:23;26.30;;;23.40;;
4634;SDS011;2330;48.158;11.816;2022-10-20T01:16:56;24.37;;;21.80;;
4634;SDS011;2330;48.158;11.816;2022-10-20T01:19:49;24.37;;;21.93;;
4634;SDS011;2330;48.158;11.816;2022-10-20T01:25:03;22.33;;;20.03;;
4634;SDS011;2330;48.158;11.816;2022-10-20T01:27:46;24.80;;;22.17;;
4634;SDS011;2330;48.158;11.816;2022-10-20T01:30:18;24.43;;;21.23;;
4634;SDS011;2330;48.158;11.816;2022-10-20T01:38:07;23.27;;;21.00;;
4634;SDS011;2330;48.158;11.816;2022-10-20T01:40:40;23.73;;;21.47;;
4634;SDS011;2330;48.158;11.816;2022-10-20T01:43:10;22.97;;;20.57;;
4634;SDS011;2330;48.158;11.816;2022-10-20T01:45:42;20.40;;;18.33;;
4634;SDS011;2330;48.158;11.816;2022-10-20T01:48:11;22.60;;;19.50;;
4634;SDS011;2330;48.158;11.816;2022-10-20T01:50:40;22.30;;;18.50;;
4634;SDS011;2330;48.158;11.816;2022-10-20T01:53:07;23.77;;;21.17;;
4634;SDS011;2330;48.158;11.816;2022-10-20T01:55:34;23.63;;;21.10;;
4634;SDS011;2330;48.158;11.816;2022-10-20T02:00:48;20.63;;;18.57;;
4634;SDS011;2330;48.158;11.816;2022-10-20T02:08:53;24.20;;;17.40;;
4634;SDS011;2330;48.158;11.816;2022-10-20T02:11:24;21.47;;;18.63;;
4634;SDS011;2330;48.158;11.816;2022-10-20T02:13:52;22.63;;;18.07;;
4634;SDS011;2330;48.158;11.816;2022-10-20T02:19:17;19.87;;;17.63;;
4634;SDS011;2330;48.158;11.816;2022-10-20T02:21:47;19.90;;;17.73;;
4634;SDS011;2330;48.158;11.816;2022-10-20T02:24:17;21.77;;;19.57;;
4634;SDS011;2330;48.158;11.816;2022-10-20T02:26:47;19.73;;;17.67;;
4634;SDS011;2330;48.158;11.816;2022-10-20T02:29:17;20.57;;;18.40;;
4634;SDS011;2330;48.158;11.816;2022-10-20T02:31:47;21.53;;;19.23;;
4634;SDS011;2330;48.158;11.816;2022-10-20T02:34:14;23.73;;;17.63;;
4634;SDS011;2330;48.158;11.816;2022-10-20T02:36:41;25.30;;;19.63;;
4634;SDS011;2330;48.158;11.816;2022-10-20T02:39:09;22.10;;;18.80;;
4634;SDS011;2330;48.158;11.816;2022-10-20T02:41:36;21.13;;;17.70;;
4634;SDS011;2330;48.158;11.816;2022-10-20T02:44:03;21.13;;;17.97;;
4634;SDS011;2330;48.158;11.816;2022-10-20T02:46:30;20.80;;;17.13;;
4634;SDS011;2330;48.158;11.816;2022-10-20T02:48:57;19.97;;;17.87;;
4634;SDS011;2330;48.158;11.816;2022-10-20T02:51:23;19.90;;;17.70;;
4634;SDS011;2330;48.158;11.816;2022-10-20T02:53:50;27.50;;;18.13;;
4634;SDS011;2330;48.158;11.816;2022-10-20T02:56:17;19.80;;;17.90;;
4634;SDS011;2330;48.158;11.816;2022-10-20T02:58:44;22.00;;;19.60;;
4634;SDS011;2330;48.158;11.816;2022-10-20T03:01:10;20.13;;;18.03;;
4634;SDS011;2330;48.158;11.816;2022-10-20T03:03:37;18.43;;;16.63;;
4634;SDS011;2330;48.158;11.816;2022-10-20T03:06:08;19.83;;;17.70;;
4634;SDS011;2330;48.158;11.816;2022-10-20T03:08:36;21.77;;;18.07;;
4634;SDS011;2330;48.158;11.816;2022-10-20T03:11:03;20.33;;;17.40;;
4634;SDS011;2330;48.158;11.816;2022-10-20T03:13:30;20.83;;;17.43;;
4634;SDS011;2330;48.158;11.816;2022-10-20T03:15:57;18.77;;;16.77;;
4634;SDS011;2330;48.158;11.816;2022-10-20T03:18:24;18.63;;;16.60;;
4634;SDS011;2330;48.158;11.816;2022-10-20T03:20:51;18.67;;;16.77;;
4634;SDS011;2330;48.158;11.816;2022-10-20T03:23:18;23.13;;;18.30;;
4634;SDS011;2330;48.158;11.816;2022-10-20T03:25:46;19.13;;;17.17;;
4634;SDS011;2330;48.158;11.816;2022-10-20T03:28:13;17.97;;;16.17;;
4634;SDS011;2330;48.158;11.816;2022-10-20T03:30:40;17.90;;;16.00;;
4634;SDS011;2330;48.158;11.816;2022-10-20T03:33:06;19.47;;;17.17;;
4634;SDS011;2330;48.158;11.816;2022-10-20T03:35:33;19.80;;;17.77;;
4634;SDS011;2330;48.158;11.816;2022-10-20T03:37:59;18.90;;;16.90;;
4634;SDS011;2330;48.158;11.816;2022-10-20T03:40:26;17.67;;;15.77;;
4634;SDS011;2330;48.158;11.816;2022-10-20T03:42:53;22.70;;;16.70;;
4634;SDS011;2330;48.158;11.816;2022-10-20T03:45:20;19.93;;;17.93;;
4634;SDS011;2330;48.158;11.816;2022-10-20T03:47:46;18.93;;;17.00;;
4634;SDS011;2330;48.158;11.816;2022-10-20T03:50:13;18.13;;;16.03;;
4634;SDS011;2330;48.158;11.816;2022-10-20T03:52:40;22.67;;;17.33;;
4634;SDS011;2330;48.158;11.816;2022-10-20T03:55:07;18.40;;;16.50;;
4634;SDS011;2330;48.158;11.816;2022-10-20T03:57:34;20.43;;;17.70;;
4634;SDS011;2330;48.158;11.816;2022-10-20T04:00:01;20.13;;;17.43;;
4634;SDS011;2330;48.158;11.816;2022-10-20T04:02:31;21.87;;;17.03;;
4634;SDS011;2330;48.158;11.816;2022-10-20T04:05:03;20.57;;;17.80;;
4634;SDS011;2330;48.158;11.816;2022-10-20T04:07:30;18.63;;;16.70;;
4634;SDS011;2330;48.158;11.816;2022-10-20T04:09:57;18.60;;;16.80;;
4634;SDS011;2330;48.158;11.816;2022-10-20T04:12:27;19.33;;;17.40;;
4634;SDS011;2330;48.158;11.816;2022-10-20T04:14:54;19.73;;;17.37;;
4634;SDS011;2330;48.158;11.816;2022-10-20T04:17:20;16.93;;;15.10;;
4634;SDS011;2330;48.158;11.816;2022-10-20T04:19:47;20.13;;;15.67;;
4634;SDS011;2330;48.158;11.816;2022-10-20T04:22:14;20.00;;;14.63;;
4634;SDS011;2330;48.158;11.816;2022-10-20T04:24:41;16.47;;;14.77;;
4634;SDS011;2330;48.158;11.816;2022-10-20T04:27:07;16.70;;;13.73;;
4634;SDS011;2330;48.158;11.816;2022-10-20T04:29:34;19.57;;;15.00;;
4634;SDS011;2330;48.158;11.816;2022-10-20T04:32:01;17.10;;;15.30;;
4634;SDS011;2330;48.158;11.816;2022-10-20T04:34:28;14.83;;;13.30;;
4634;SDS011;2330;48.158;11.816;2022-10-20T04:36:55;17.20;;;15.47;;
4634;SDS011;2330;48.158;11.816;2022-10-20T04:39:21;18.73;;;14.63;;
4634;SDS011;2330;48.158;11.816;2022-10-20T04:41:48;16.40;;;14.40;;
4634;SDS011;2330;48.158;11.816;2022-10-20T04:44:15;15.60;;;13.93;;
4634;SDS011;2330;48.158;11.816;2022-10-20T04:46:42;16.73;;;14.37;;
4634;SDS011;2330;48.158;11.816;2022-10-20T04:49:09;17.50;;;14.90;;
4634;SDS011;2330;48.158;11.816;2022-10-20T04:51:38;19.50;;;16.07;;
4634;SDS011;2330;48.158;11.816;2022-10-20T04:54:05;16.37;;;14.67;;
4634;SDS011;2330;48.158;11.816;2022-10-20T04:56:31;17.90;;;15.57;;
4634;SDS011;2330;48.158;11.816;2022-10-20T04:58:58;23.43;;;14.80;;
4634;SDS011;2330;48.158;11.816;2022-10-20T05:01:26;15.17;;;13.40;;
4634;SDS011;2330;48.158;11.816;2022-10-20T05:03:55;17.87;;;15.97;;
4634;SDS011;2330;48.158;11.816;2022-10-20T05:06:23;15.87;;;14.20;;
4634;SDS011;2330;48.158;11.816;2022-10-20T05:08:52;18.03;;;16.20;;
4634;SDS011;2330;48.158;11.816;2022-10-20T05:11:21;16.27;;;14.57;;
4634;SDS011;2330;48.158;11.816;2022-10-20T05:13:49;22.97;;;20.23;;
4634;SDS011;2330;48.158;11.816;2022-10-20T05:16:16;21.00;;;17.17;;
4634;SDS011;2330;48.158;11.816;2022-10-20T05:18:44;20.13;;;16.43;;
4634;SDS011;2330;48.158;11.816;2022-10-20T05:21:13;18.43;;;15.13;;
4634;SDS011;2330;48.158;11.816;2022-10-20T05:23:41;16.03;;;14.33;;
4634;SDS011;2330;48.158;11.816;2022-10-20T05:26:10;18.40;;;14.77;;
4634;SDS011;2330;48.158;11.816;2022-10-20T05:28:38;20.57;;;15.90;;
4634;SDS011;2330;48.158;11.816;2022-10-20T05:31:07;16.90;;;15.07;;
4634;SDS011;2330;48.158;11.816;2022-10-20T05:33:34;18.47;;;15.10;;
4634;SDS011;2330;48.158;11.816;2022-10-20T05:36:08;19.17;;;15.70;;
4634;SDS011;2330;48.158;11.816;2022-10-20T05:38:35;24.37;;;15.80;;
4634;SDS011;2330;48.158;11.816;2022-10-20T05:41:06;17.20;;;14.30;;
4634;SDS011;2330;48.158;11.816;2022-10-20T05:43:34;22.17;;;14.43;;
4634;SDS011;2330;48.158;11.816;2022-10-20T05:46:01;15.60;;;14.10;;
4634;SDS011;2330;48.158;11.816;2022-10-20T05:48:28;18.10;;;14.50;;
4634;SDS011;2330;48.158;11.816;2022-10-20T05:51:05;15.20;;;13.53;;
4634;SDS011;2330;48.158;11.816;2022-10-20T05:53:40;17.20;;;14.43;;
4634;SDS011;2330;48.158;11.816;2022-10-20T05:56:08;20.03;;;14.33;;
4634;SDS011;2330;48.158;11.816;2022-10-20T05:58:38;20.53;;;15.47;;
4634;SDS011;2330;48.158;11.816;2022-10-20T06:01:06;22.63;;;14.60;;
4634;SDS011;2330;48.158;11.816;2022-10-20T06:03:33;15.70;;;13.40;;
4634;SDS011;2330;48.158;11.816;2022-10-20T06:06:01;19.50;;;15.00;;
4634;SDS011;2330;48.158;11.816;2022-10-20T06:08:29;14.87;;;12.90;;
4634;SDS011;2330;48.158;11.816;2022-10-20T06:11:03;18.27;;;16.17;;
4634;SDS011;2330;48.158;11.816;2022-10-20T06:13:31;15.97;;;14.20;;
4634;SDS011;2330;48.158;11.816;2022-10-20T06:18:28;19.23;;;15.87;;
4634;SDS011;2330;48.158;11.816;2022-10-20T06:20:57;23.77;;;18.90;;
4634;SDS011;2330;48.158;11.816;2022-10-20T06:23:28;20.77;;;15.30;;
4634;SDS011;2330;48.158;11.816;2022-10-20T06:25:59;17.80;;;14.30;;
4634;SDS011;2330;48.158;11.816;2022-10-20T06:28:38;14.33;;;12.93;;
4634;SDS011;2330;48.158;11.816;2022-10-20T06:31:13;19.23;;;13.40;;
4634;SDS011;2330;48.158;11.816;2022-10-20T06:33:43;16.43;;;13.13;;
4634;SDS011;2330;48.158;11.816;2022-10-20T06:36:10;16.13;;;13.93;;
4634;SDS011;2330;48.158;11.816;2022-10-20T06:38:37;19.57;;;13.40;;
4634;SDS011;2330;48.158;11.816;2022-10-20T06:41:06;14.70;;;13.03;;
4634;SDS011;2330;48.158;11.816;2022-10-20T06:43:34;14.47;;;12.30;;
4634;SDS011;2330;48.158;11.816;2022-10-20T06:46:03;16.83;;;13.30;;
4634;SDS011;2330;48.158;11.816;2022-10-20T06:48:32;14.17;;;12.53;;
4634;SDS011;2330;48.158;11.816;2022-10-20T06:51:04;15.57;;;12.50;;
4634;SDS011;2330;48.158;11.816;2022-10-20T06:53:33;13.97;;;12.57;;
4634;SDS011;2330;48.158;11.816;2022-10-20T06:58:36;80.27;;;22.83;;
4634;SDS011;2330;48.158;11.816;2022-10-20T07:01:08;19.53;;;13.00;;
4634;SDS011;2330;48.158;11.816;2022-10-20T07:03:37;14.03;;;12.47;;
4634;SDS011;2330;48.158;11.816;2022-10-20T07:06:05;11.83;;;10.53;;
4634;SDS011;2330;48.158;11.816;2022-10-20T07:08:34;13.10;;;11.33;;
4634;SDS011;2330;48.158;11.816;2022-10-20T07:11:02;15.53;;;12.50;;
4634;SDS011;2330;48.158;11.816;2022-10-20T07:13:31;19.87;;;15.00;;
4634;SDS011;2330;48.158;11.816;2022-10-20T07:15:59;19.87;;;14.93;;
4634;SDS011;2330;48.158;11.816;2022-10-20T07:18:27;22.10;;;15.30;;
4634;SDS011;2330;48.158;11.816;2022-10-20T07:20:55;21.83;;;15.87;;
4634;SDS011;2330;48.158;11.816;2022-10-20T07:23:23;22.63;;;15.90;;
4634;SDS011;2330;48.158;11.816;2022-10-20T07:25:51;24.20;;;17.20;;
4634;SDS011;2330;48.158;11.816;2022-10-20T07:28:25;19.87;;;15.10;;
4634;SDS011;2330;48.158;11.816;2022-10-20T07:30:51;18.53;;;16.60;;
4634;SDS011;2330;48.158;11.816;2022-10-20T07:33:18;24.93;;;16.47;;
4634;SDS011;2330;48.158;11.816;2022-10-20T07:35:45;20.00;;;17.00;;
4634;SDS011;2330;48.158;11.816;2022-10-20T07:38:13;18.30;;;16.40;;
4634;SDS011;2330;48.158;11.816;2022-10-20T07:40:40;20.60;;;17.20;;
4634;SDS011;2330;48.158;11.816;2022-10-20T07:43:06;21.47;;;16.07;;
4634;SDS011;2330;48.158;11.816;2022-10-20T07:45:33;19.30;;;15.03;;
4634;SDS011;2330;48.158;11.816;2022-10-20T07:48:00;21.07;;;14.40;;
4634;SDS011;2330;48.158;11.816;2022-10-20T07:50:27;20.53;;;15.10;;
4634;SDS011;2330;48.158;11.816;2022-10-20T07:52:53;18.13;;;13.77;;
4634;SDS011;2330;48.158;11.816;2022-10-20T07:55:20;25.43;;;15.40;;
4634;SDS011;2330;48.158;11.816;2022-10-20T07:58:03;16.90;;;14.63;;
4634;SDS011;2330;48.158;11.816;2022-10-20T08:00:30;18.07;;;16.00;;
4634;SDS011;2330;48.158;11.816;2022-10-20T08:02:57;21.87;;;15.47;;
4634;SDS011;2330;48.158;11.816;2022-10-20T08:05:23;20.43;;;15.10;;
4634;SDS011;2330;48.158;11.816;2022-10-20T08:07:50;21.07;;;15.30;;
4634;SDS011;2330;48.158;11.816;2022-10-20T08:10:17;17.27;;;15.03;;
4634;SDS011;2330;48.158;11.816;2022-10-20T08:12:44;18.60;;;15.30;;
4634;SDS011;2330;48.158;11.816;2022-10-20T08:15:11;28.67;;;16.40;;
4634;SDS011;2330;48.158;11.816;2022-10-20T08:17:37;17.43;;;15.33;;
4634;SDS011;2330;48.158;11.816;2022-10-20T08:20:04;15.10;;;13.60;;
4634;SDS011;2330;48.158;11.816;2022-10-20T08:22:37;15.50;;;13.87;;
4634;SDS011;2330;48.158;11.816;2022-10-20T08:25:04;14.43;;;12.20;;
4634;SDS011;2330;48.158;11.816;2022-10-20T08:27:32;12.37;;;11.07;;
4634;SDS011;2330;48.158;11.816;2022-10-20T08:29:58;12.67;;;11.33;;
4634;SDS011;2330;48.158;11.816;2022-10-20T08:32:48;14.90;;;11.97;;
4634;SDS011;2330;48.158;11.816;2022-10-20T08:35:16;15.33;;;11.30;;
4634;SDS011;2330;48.158;11.816;2022-10-20T08:37:43;13.10;;;11.70;;
4634;SDS011;2330;48.158;11.816;2022-10-20T08:40:20;12.23;;;11.03;;
4634;SDS011;2330;48.158;11.816;2022-10-20T08:42:50;11.63;;;10.53;;
4634;SDS011;2330;48.158;11.816;2022-10-20T08:45:18;11.10;;;10.10;;
4634;SDS011;2330;48.158;11.816;2022-10-20T08:47:48;13.00;;;10.73;;
4634;SDS011;2330;48.158;11.816;2022-10-20T08:50:17;14.00;;;9.80;;
4634;SDS011;2330;48.158;11.816;2022-10-20T08:52:46;12.43;;;10.63;;
4634;SDS011;2330;48.158;11.816;2022-10-20T08:55:19;14.73;;;8.50;;
4634;SDS011;2330;48.158;11.816;2022-10-20T08:57:59;13.67;;;8.70;;
4634;SDS011;2330;48.158;11.816;2022-10-20T09:00:28;8.60;;;7.90;;
4634;SDS011;2330;48.158;11.816;2022-10-20T09:02:59;12.93;;;8.57;;
4634;SDS011;2330;48.158;11.816;2022-10-20T09:05:35;8.53;;;7.50;;
4634;SDS011;2330;48.158;11.816;2022-10-20T09:08:06;10.43;;;7.50;;
4634;SDS011;2330;48.158;11.816;2022-10-20T09:10:37;8.30;;;7.30;;
4634;SDS011;2330;48.158;11.816;2022-10-20T09:13:15;9.90;;;7.80;;
4634;SDS011;2330;48.158;11.816;2022-10-20T09:15:47;8.03;;;7.33;;
4634;SDS011;2330;48.158;11.816;2022-10-20T09:18:15;8.37;;;7.67;;
4634;SDS011;2330;48.158;11.816;2022-10-20T09:20:53;8.20;;;7.37;;
4634;SDS011;2330;48.158;11.816;2022-10-20T09:23:24;7.90;;;7.10;;
4634;SDS011;2330;48.158;11.816;2022-10-20T09:26:11;8.23;;;6.60;;
4634;SDS011;2330;48.158;11.816;2022-10-20T09:29:13;7.27;;;6.63;;
4634;SDS011;2330;48.158;11.816;2022-10-20T09:31:45;13.20;;;6.53;;
4634;SDS011;2330;48.158;11.816;2022-10-20T09:37:17;8.13;;;6.87;;
4634;SDS011;2330;48.158;11.816;2022-10-20T09:39:49;8.07;;;7.27;;
4634;SDS011;2330;48.158;11.816;2022-10-20T09:42:22;7.63;;;6.57;;
4634;SDS011;2330;48.158;11.816;2022-10-20T09:45:05;8.00;;;6.10;;
4634;SDS011;2330;48.158;11.816;2022-10-20T09:47:48;9.10;;;5.90;;
4634;SDS011;2330;48.158;11.816;2022-10-20T09:50:23;9.20;;;5.90;;
4634;SDS011;2330;48.158;11.816;2022-10-20T09:52:57;6.53;;;5.93;;
4634;SDS011;2330;48.158;11.816;2022-10-20T09:55:35;12.00;;;5.90;;
4634;SDS011;2330;48.158;11.816;2022-10-20T09:58:14;6.83;;;6.13;;
4634;SDS011;2330;48.158;11.816;2022-10-20T10:01:05;6.30;;;5.67;;
4634;SDS011;2330;48.158;11.816;2022-10-20T10:03:42;7.67;;;5.60;;
4634;SDS011;2330;48.158;11.816;2022-10-20T10:12:29;7.20;;;5.00;;
4634;SDS011;2330;48.158;11.816;2022-10-20T10:14:58;11.00;;;5.47;;
4634;SDS011;2330;48.158;11.816;2022-10-20T10:17:37;5.03;;;4.53;;
4634;SDS011;2330;48.158;11.816;2022-10-20T10:20:16;5.27;;;4.10;;
4634;SDS011;2330;48.158;11.816;2022-10-20T10:25:47;6.83;;;4.90;;
4634;SDS011;2330;48.158;11.816;2022-10-20T10:33:48;13.40;;;4.77;;
4634;SDS011;2330;48.158;11.816;2022-10-20T10:36:20;7.40;;;4.57;;
4634;SDS011;2330;48.158;11.816;2022-10-20T10:38:54;5.67;;;5.07;;
4634;SDS011;2330;48.158;11.816;2022-10-20T10:44:29;5.33;;;4.83;;
4634;SDS011;2330;48.158;11.816;2022-10-20T10:47:14;5.97;;;4.37;;
4634;SDS011;2330;48.158;11.816;2022-10-20T10:58:41;5.30;;;4.47;;
4634;SDS011;2330;48.158;11.816;2022-10-20T11:10:02;4.00;;;3.60;;
4634;SDS011;2330;48.158;11.816;2022-10-20T11:29:00;4.90;;;3.90;;
4634;SDS011;2330;48.158;11.816;2022-10-20T11:31:40;4.27;;;3.40;;
4634;SDS011;2330;48.158;11.816;2022-10-20T11:34:26;13.40;;;4.07;;
4634;SDS011;2330;48.158;11.816;2022-10-20T11:37:06;4.83;;;3.60;;
4634;SDS011;2330;48.158;11.816;2022-10-20T11:42:36;5.37;;;3.53;;
4634;SDS011;2330;48.158;11.816;2022-10-20T11:48:17;3.37;;;3.07;;
4634;SDS011;2330;48.158;11.816;2022-10-20T12:02:45;4.83;;;3.27;;
4634;SDS011;2330;48.158;11.816;2022-10-20T12:11:48;9.30;;;3.20;;
4634;SDS011;2330;48.158;11.816;2022-10-20T12:21:57;5.70;;;4.00;;
4634;SDS011;2330;48.158;11.816;2022-10-20T12:24:40;6.37;;;3.63;;
4634;SDS011;2330;48.158;11.816;2022-10-20T12:27:27;4.43;;;3.37;;
4634;SDS011;2330;48.158;11.816;2022-10-20T12:29:59;4.10;;;3.63;;
4634;SDS011;2330;48.158;11.816;2022-10-20T12:34:55;7.00;;;3.93;;
4634;SDS011;2330;48.158;11.816;2022-10-20T12:37:31;5.27;;;4.00;;
4634;SDS011;2330;48.158;11.816;2022-10-20T12:40:48;5.63;;;3.93;;
4634;SDS011;2330;48.158;11.816;2022-10-20T12:42:53;7.17;;;4.53;;
4634;SDS011;2330;48.158;11.816;2022-10-20T12:45:42;6.90;;;4.63;;
4634;SDS011;2330;48.158;11.816;2022-10-20T12:48:15;8.73;;;4.47;;
4634;SDS011;2330;48.158;11.816;2022-10-20T12:50:49;5.00;;;4.17;;
4634;SDS011;2330;48.158;11.816;2022-10-20T12:58:36;5.20;;;3.20;;
4634;SDS011;2330;48.158;11.816;2022-10-20T13:01:06;6.53;;;4.00;;
4634;SDS011;2330;48.158;11.816;2022-10-20T13:03:47;4.43;;;4.03;;
4634;SDS011;2330;48.158;11.816;2022-10-20T13:16:45;6.33;;;4.13;;
4634;SDS011;2330;48.158;11.816;2022-10-20T13:19:18;8.67;;;3.90;;
4634;SDS011;2330;48.158;11.816;2022-10-20T13:21:49;4.17;;;2.87;;
4634;SDS011;2330;48.158;11.816;2022-10-20T13:26:55;5.00;;;4.10;;
4634;SDS011;2330;48.158;11.816;2022-10-20T13:29:32;5.67;;;3.97;;
4634;SDS011;2330;48.158;11.816;2022-10-20T13:34:42;6.00;;;4.40;;
4634;SDS011;2330;48.158;11.816;2022-10-20T13:37:28;6.23;;;3.93;;
4634;SDS011;2330;48.158;11.816;2022-10-20T13:40:14;8.00;;;3.60;;
4634;SDS011;2330;48.158;11.816;2022-10-20T13:48:05;8.23;;;3.83;;
4634;SDS011;2330;48.158;11.816;2022-10-20T13:50:36;4.30;;;3.60;;
4634;SDS011;2330;48.158;11.816;2022-10-20T13:53:20;8.57;;;4.80;;
4634;SDS011;2330;48.158;11.816;2022-10-20T13:58:21;4.67;;;3.30;;
4634;SDS011;2330;48.158;11.816;2022-10-20T14:03:44;5.43;;;3.70;;
4634;SDS011;2330;48.158;11.816;2022-10-20T14:09:08;5.50;;;3.60;;
4634;SDS011;2330;48.158;11.816;2022-10-20T14:11:35;4.50;;;4.10;;
4634;SDS011;2330;48.158;11.816;2022-10-20T14:14:02;8.43;;;4.80;;
4634;SDS011;2330;48.158;11.816;2022-10-20T14:16:30;8.23;;;4.30;;
4634;SDS011;2330;48.158;11.816;2022-10-20T14:19:05;5.57;;;3.93;;
4634;SDS011;2330;48.158;11.816;2022-10-20T14:21:39;6.20;;;4.37;;
4634;SDS011;2330;48.158;11.816;2022-10-20T14:24:11;9.63;;;4.97;;
4634;SDS011;2330;48.158;11.816;2022-10-20T14:26:42;6.13;;;4.93;;
4634;SDS011;2330;48.158;11.816;2022-10-20T14:29:13;9.00;;;5.10;;
4634;SDS011;2330;48.158;11.816;2022-10-20T14:31:43;5.73;;;4.10;;
4634;SDS011;2330;48.158;11.816;2022-10-20T14:34:25;7.20;;;4.97;;
4634;SDS011;2330;48.158;11.816;2022-10-20T14:36:54;7.40;;;5.10;;
4634;SDS011;2330;48.158;11.816;2022-10-20T14:41:56;5.93;;;5.23;;
4634;SDS011;2330;48.158;11.816;2022-10-20T14:44:27;6.93;;;5.57;;
4634;SDS011;2330;48.158;11.816;2022-10-20T14:46:58;7.60;;;5.47;;
4634;SDS011;2330;48.158;11.816;2022-10-20T14:49:35;11.20;;;5.60;;
4634;SDS011;2330;48.158;11.816;2022-10-20T14:52:17;15.60;;;5.20;;
4634;SDS011;2330;48.158;11.816;2022-10-20T14:54:49;8.90;;;5.20;;
4634;SDS011;2330;48.158;11.816;2022-10-20T14:59:50;5.90;;;5.23;;
4634;SDS011;2330;48.158;11.816;2022-10-20T15:10:42;5.53;;;5.03;;
4634;SDS011;2330;48.158;11.816;2022-10-20T15:16:30;4.43;;;4.03;;
4634;SDS011;2330;48.158;11.816;2022-10-20T15:21:57;4.23;;;3.80;;
4634;SDS011;2330;48.158;11.816;2022-10-20T15:24:26;5.27;;;4.77;;
4634;SDS011;2330;48.158;11.816;2022-10-20T15:26:54;8.40;;;4.63;;
4634;SDS011;2330;48.158;11.816;2022-10-20T15:29:22;4.20;;;3.90;;
4634;SDS011;2330;48.158;11.816;2022-10-20T15:31:49;5.63;;;4.03;;
4634;SDS011;2330;48.158;11.816;2022-10-20T15:34:16;6.90;;;4.43;;
4634;SDS011;2330;48.158;11.816;2022-10-20T15:36:43;4.93;;;4.53;;
4634;SDS011;2330;48.158;11.816;2022-10-20T15:39:14;8.13;;;5.37;;
4634;SDS011;2330;48.158;11.816;2022-10-20T15:41:40;11.10;;;4.97;;
4634;SDS011;2330;48.158;11.816;2022-10-20T15:44:12;4.50;;;4.10;;
4634;SDS011;2330;48.158;11.816;2022-10-20T15:46:40;5.10;;;4.60;;
4634;SDS011;2330;48.158;11.816;2022-10-20T15:49:08;4.90;;;4.50;;
4634;SDS011;2330;48.158;11.816;2022-10-20T15:51:35;15.73;;;5.60;;
4634;SDS011;2330;48.158;11.816;2022-10-20T15:54:05;9.23;;;4.63;;
4634;SDS011;2330;48.158;11.816;2022-10-20T15:56:32;7.93;;;4.53;;
4634;SDS011;2330;48.158;11.816;2022-10-20T15:59:00;5.27;;;4.77;;
4634;SDS011;2330;48.158;11.816;2022-10-20T16:01:28;5.13;;;4.27;;
4634;SDS011;2330;48.158;11.816;2022-10-20T16:03:54;5.80;;;4.63;;
4634;SDS011;2330;48.158;11.816;2022-10-20T16:06:21;5.70;;;5.20;;
4634;SDS011;2330;48.158;11.816;2022-10-20T16:08:49;4.63;;;4.23;;
4634;SDS011;2330;48.158;11.816;2022-10-20T16:11:17;7.67;;;4.80;;
4634;SDS011;2330;48.158;11.816;2022-10-20T16:13:45;6.70;;;4.40;;
4634;SDS011;2330;48.158;11.816;2022-10-20T16:16:14;7.20;;;5.60;;
4634;SDS011;2330;48.158;11.816;2022-10-20T16:18:43;8.07;;;5.10;;
4634;SDS011;2330;48.158;11.816;2022-10-20T16:21:10;8.40;;;4.63;;
4634;SDS011;2330;48.158;11.816;2022-10-20T16:23:37;7.87;;;5.87;;
4634;SDS011;2330;48.158;11.816;2022-10-20T16:26:08;8.77;;;4.90;;
4634;SDS011;2330;48.158;11.816;2022-10-20T16:28:36;4.73;;;4.33;;
4634;SDS011;2330;48.158;11.816;2022-10-20T16:31:07;6.07;;;5.57;;
4634;SDS011;2330;48.158;11.816;2022-10-20T16:33:35;6.37;;;4.90;;
4634;SDS011;2330;48.158;11.816;2022-10-20T16:36:03;5.70;;;5.10;;
4634;SDS011;2330;48.158;11.816;2022-10-20T16:38:33;6.57;;;5.40;;
4634;SDS011;2330;48.158;11.816;2022-10-20T16:41:06;8.70;;;4.80;;
4634;SDS011;2330;48.158;11.816;2022-10-20T16:43:37;6.17;;;5.47;;
4634;SDS011;2330;48.158;11.816;2022-10-20T16:46:09;6.03;;;4.60;;
4634;SDS011;2330;48.158;11.816;2022-10-20T16:48:36;9.80;;;5.23;;
4634;SDS011;2330;48.158;11.816;2022-10-20T16:51:08;6.53;;;4.07;;
4634;SDS011;2330;48.158;11.816;2022-10-20T16:53:37;5.60;;;4.60;;
4634;SDS011;2330;48.158;11.816;2022-10-20T16:56:04;5.10;;;4.23;;
4634;SDS011;2330;48.158;11.816;2022-10-20T16:58:31;5.97;;;5.03;;
4634;SDS011;2330;48.158;11.816;2022-10-20T17:00:59;4.93;;;4.50;;
4634;SDS011;2330;48.158;11.816;2022-10-20T17:03:29;7.90;;;5.20;;
4634;SDS011;2330;48.158;11.816;2022-10-20T17:05:57;14.90;;;7.77;;
4634;SDS011;2330;48.158;11.816;2022-10-20T17:08:25;6.10;;;5.57;;
4634;SDS011;2330;48.158;11.816;2022-10-20T17:10:54;9.63;;;5.80;;
4634;SDS011;2330;48.158;11.816;2022-10-20T17:13:21;8.60;;;4.80;;
4634;SDS011;2330;48.158;11.816;2022-10-20T17:15:48;5.57;;;4.90;;
4634;SDS011;2330;48.158;11.816;2022-10-20T17:18:15;8.30;;;5.90;;
4634;SDS011;2330;48.158;11.816;2022-10-20T17:20:42;10.20;;;4.93;;
4634;SDS011;2330;48.158;11.816;2022-10-20T17:23:09;6.83;;;4.90;;
4634;SDS011;2330;48.158;11.816;2022-10-20T17:25:36;14.27;;;5.10;;
4634;SDS011;2330;48.158;11.816;2022-10-20T17:28:04;9.63;;;5.30;;
4634;SDS011;2330;48.158;11.816;2022-10-20T17:30:31;4.23;;;3.93;;
4634;SDS011;2330;48.158;11.816;2022-10-20T17:32:57;5.53;;;5.00;;
4634;SDS011;2330;48.158;11.816;2022-10-20T17:35:24;8.27;;;4.53;;
4634;SDS011;2330;48.158;11.816;2022-10-20T17:37:53;10.03;;;4.77;;
4634;SDS011;2330;48.158;11.816;2022-10-20T17:40:20;5.20;;;4.70;;
4634;SDS011;2330;48.158;11.816;2022-10-20T17:42:47;5.47;;;4.97;;
4634;SDS011;2330;48.158;11.816;2022-10-20T17:45:14;7.53;;;4.83;;
4634;SDS011;2330;48.158;11.816;2022-10-20T17:47:40;5.00;;;4.60;;
4634;SDS011;2330;48.158;11.816;2022-10-20T17:50:08;7.57;;;5.17;;
4634;SDS011;2330;48.158;11.816;2022-10-20T17:52:35;6.73;;;5.53;;
4634;SDS011;2330;48.158;11.816;2022-10-20T17:55:03;9.70;;;5.17;;